createdAt,value
2022-09-15T00:00:26.013Z,99.43
2022-09-15T00:01:26.141Z,99.90
2022-09-15T00:02:26.048Z,99.99
2022-09-15T00:03:25.981Z,99.99
2022-09-15T00:04:25.940Z,99.99
2022-09-15T00:05:25.951Z,99.99
2022-09-15T00:06:25.930Z,99.99
2022-09-15T00:07:25.912Z,99.99
2022-09-15T00:08:25.902Z,99.99
2022-09-15T00:09:25.902Z,99.99
2022-09-15T00:11:51.689Z,99.99
2022-09-15T00:12:37.012Z,99.99
2022-09-15T00:13:36.879Z,99.99
2022-09-15T00:14:36.872Z,99.99
2022-09-15T00:15:36.883Z,99.99
2022-09-15T00:16:36.831Z,99.99
2022-09-15T00:17:36.813Z,99.99
2022-09-15T00:18:36.810Z,99.99
2022-09-15T00:19:36.770Z,99.99
2022-09-15T00:20:36.764Z,99.99
2022-09-15T00:21:36.740Z,99.99
2022-09-15T00:22:36.743Z,99.99
2022-09-15T00:23:36.737Z,99.99
2022-09-15T00:24:36.702Z,99.99
2022-09-15T00:25:36.705Z,99.99
2022-09-15T00:26:36.671Z,99.99
2022-09-15T00:27:36.673Z,99.99
2022-09-15T00:28:36.656Z,99.99
2022-09-15T00:29:36.743Z,99.80
2022-09-15T00:30:36.694Z,99.50
2022-09-15T00:31:36.617Z,99.29
2022-09-15T00:32:36.591Z,98.99
2022-09-15T00:33:36.599Z,98.79
2022-09-15T00:34:36.562Z,98.48
2022-09-15T00:35:36.673Z,98.38
2022-09-15T00:36:36.548Z,98.38
2022-09-15T00:37:36.532Z,98.38
2022-09-15T00:38:36.520Z,99.19
2022-09-15T00:39:36.509Z,99.40
2022-09-15T00:40:36.477Z,99.29
2022-09-15T00:41:36.583Z,99.19
2022-09-15T00:42:37.421Z,99.09
2022-09-15T00:43:36.460Z,98.99
2022-09-15T00:44:36.443Z,98.99
2022-09-15T00:45:36.468Z,99.09
2022-09-15T00:46:37.377Z,99.09
2022-09-15T00:47:36.388Z,99.24
2022-09-15T00:48:36.382Z,99.44
2022-09-15T00:49:36.359Z,99.65
2022-09-15T00:50:36.372Z,99.75
2022-09-15T00:51:36.343Z,99.85
2022-09-15T00:52:36.310Z,99.99
2022-09-15T00:53:36.322Z,99.99
2022-09-15T00:54:36.289Z,99.99
2022-09-15T00:55:36.285Z,99.99
2022-09-15T00:56:36.285Z,99.99
2022-09-15T00:57:36.478Z,99.99
2022-09-15T00:58:36.233Z,99.99
2022-09-15T00:59:36.224Z,99.99
2022-09-15T01:00:36.215Z,99.99
2022-09-15T01:01:36.242Z,99.99
2022-09-15T01:02:36.310Z,99.99
2022-09-15T01:03:36.177Z,99.99
2022-09-15T01:04:36.162Z,99.99
2022-09-15T01:05:36.849Z,99.99
2022-09-15T01:06:36.121Z,99.99
2022-09-15T01:07:36.114Z,99.99
2022-09-15T01:08:36.118Z,99.99
2022-09-15T01:09:36.085Z,99.99
2022-09-15T01:10:36.085Z,99.99
2022-09-15T01:11:36.076Z,99.99
2022-09-15T01:12:36.040Z,99.99
2022-09-15T01:13:36.036Z,99.99
2022-09-15T01:14:36.031Z,99.99
2022-09-15T01:15:36.021Z,99.99
2022-09-15T01:16:36.014Z,99.99
2022-09-15T01:17:35.993Z,99.99
2022-09-15T01:18:36.091Z,99.99
2022-09-15T01:19:35.956Z,99.95
2022-09-15T01:20:35.960Z,99.75
2022-09-15T01:21:35.930Z,99.95
2022-09-15T01:22:35.922Z,99.95
2022-09-15T01:23:35.911Z,99.95
2022-09-15T01:24:35.901Z,99.85
2022-09-15T01:25:35.884Z,99.85
2022-09-15T01:26:35.862Z,99.65
2022-09-15T01:27:42.571Z,99.44
2022-09-15T01:28:36.834Z,99.54
2022-09-15T01:29:35.817Z,99.44
2022-09-15T01:30:35.817Z,99.65
2022-09-15T01:31:35.829Z,99.54
2022-09-15T01:32:35.762Z,99.44
2022-09-15T01:33:35.777Z,99.34
2022-09-15T01:34:36.692Z,99.54
2022-09-15T01:35:35.852Z,99.44
2022-09-15T01:36:35.727Z,99.54
2022-09-15T01:37:36.660Z,99.44
2022-09-15T01:38:35.716Z,99.54
2022-09-15T01:39:35.690Z,99.65
2022-09-15T01:40:35.666Z,99.75
2022-09-15T01:41:35.669Z,99.75
2022-09-15T01:42:35.625Z,99.54
2022-09-15T01:43:35.626Z,99.65
2022-09-15T01:44:35.621Z,99.14
2022-09-15T01:45:35.657Z,99.14
2022-09-15T01:46:35.817Z,99.14
2022-09-15T01:47:35.568Z,99.04
2022-09-15T01:48:35.560Z,99.14
2022-09-15T01:49:35.556Z,99.04
2022-09-15T01:50:35.551Z,99.24
2022-09-15T01:51:35.529Z,99.14
2022-09-15T01:52:35.529Z,99.24
2022-09-15T01:53:35.501Z,99.14
2022-09-15T01:54:36.418Z,99.14
2022-09-15T01:55:35.459Z,99.14
2022-09-15T01:56:35.452Z,99.44
2022-09-15T01:57:35.430Z,99.24
2022-09-15T01:58:36.414Z,99.34
2022-09-15T01:59:35.415Z,98.93
2022-09-15T02:00:36.340Z,98.83
2022-09-15T02:01:35.416Z,98.93
2022-09-15T02:02:35.435Z,98.83
2022-09-15T02:03:35.366Z,99.04
2022-09-15T02:04:35.334Z,99.09
2022-09-15T02:05:35.338Z,98.89
2022-09-15T02:06:35.302Z,98.68
2022-09-15T02:07:35.304Z,98.73
2022-09-15T02:08:35.299Z,98.83
2022-09-15T02:09:35.274Z,98.83
2022-09-15T02:10:36.217Z,98.83
2022-09-15T02:11:35.256Z,98.93
2022-09-15T02:12:35.222Z,98.83
2022-09-15T02:13:35.226Z,98.73
2022-09-15T02:14:35.314Z,98.73
2022-09-15T02:15:35.184Z,98.83
2022-09-15T02:16:35.298Z,98.73
2022-09-15T02:17:35.171Z,98.93
2022-09-15T02:18:35.136Z,98.83
2022-09-15T02:19:35.129Z,98.68
2022-09-15T02:20:35.132Z,99.08
2022-09-15T02:21:35.106Z,99.18
2022-09-15T02:22:35.103Z,99.29
2022-09-15T02:23:35.097Z,99.39
2022-09-15T02:24:35.062Z,99.59
2022-09-15T02:25:35.062Z,99.49
2022-09-15T02:26:35.029Z,99.49
2022-09-15T02:27:35.018Z,99.39
2022-09-15T02:28:35.021Z,99.29
2022-09-15T02:29:34.999Z,99.39
2022-09-15T02:30:34.992Z,99.49
2022-09-15T02:31:36.003Z,99.39
2022-09-15T02:32:34.955Z,99.34
2022-09-15T02:33:34.944Z,99.24
2022-09-15T02:34:34.929Z,99.24
2022-09-15T02:35:35.121Z,99.24
2022-09-15T02:36:34.915Z,99.14
2022-09-15T02:37:34.882Z,99.04
2022-09-15T02:38:34.884Z,98.93
2022-09-15T02:39:34.866Z,99.04
2022-09-15T02:40:35.012Z,98.93
2022-09-15T02:41:34.836Z,98.93
2022-09-15T02:42:34.830Z,98.83
2022-09-15T02:43:34.794Z,98.68
2022-09-15T02:44:34.799Z,98.58
2022-09-15T02:45:34.799Z,98.58
2022-09-15T02:46:34.826Z,98.79
2022-09-15T02:47:34.756Z,98.89
2022-09-15T02:48:34.733Z,98.79
2022-09-15T02:49:34.714Z,98.79
2022-09-15T02:50:35.404Z,98.89
2022-09-15T02:51:34.701Z,98.79
2022-09-15T02:52:34.677Z,98.79
2022-09-15T02:53:34.678Z,98.79
2022-09-15T02:54:34.648Z,98.89
2022-09-15T02:55:34.637Z,98.93
2022-09-15T02:56:35.592Z,99.14
2022-09-15T02:57:34.719Z,99.14
2022-09-15T02:58:34.611Z,99.14
2022-09-15T02:59:34.601Z,99.24
2022-09-15T03:00:34.610Z,99.34
2022-09-15T03:01:34.968Z,99.44
2022-09-15T03:02:34.543Z,99.54
2022-09-15T03:03:34.589Z,99.65
2022-09-15T03:04:34.525Z,99.65
2022-09-15T03:05:34.513Z,99.54
2022-09-15T03:06:34.498Z,99.69
2022-09-15T03:07:34.471Z,99.69
2022-09-15T03:08:34.478Z,99.90
2022-09-15T03:09:34.561Z,99.99
2022-09-15T03:10:34.448Z,99.99
2022-09-15T03:11:34.446Z,99.99
2022-09-15T03:12:34.404Z,99.99
2022-09-15T03:13:34.417Z,99.99
2022-09-15T03:14:34.382Z,99.99
2022-09-15T03:15:34.364Z,99.99
2022-09-15T03:16:34.446Z,99.99
2022-09-15T03:17:34.352Z,99.99
2022-09-15T03:18:34.339Z,99.99
2022-09-15T03:19:34.322Z,99.99
2022-09-15T03:20:34.413Z,99.99
2022-09-15T03:21:34.275Z,99.99
2022-09-15T03:22:34.279Z,99.99
2022-09-15T03:23:34.269Z,99.99
2022-09-15T03:24:34.244Z,99.99
2022-09-15T03:25:34.239Z,99.99
2022-09-15T03:26:34.255Z,99.99
2022-09-15T03:27:35.147Z,99.99
2022-09-15T03:28:34.200Z,99.99
2022-09-15T03:29:34.178Z,99.99
2022-09-15T03:30:34.171Z,99.99
2022-09-15T03:31:34.222Z,99.99
2022-09-15T03:32:34.148Z,99.99
2022-09-15T03:33:34.132Z,99.99
2022-09-15T03:34:34.107Z,99.99
2022-09-15T03:35:34.090Z,99.99
2022-09-15T03:36:34.092Z,99.99
2022-09-15T03:37:34.092Z,99.99
2022-09-15T03:38:34.063Z,99.99
2022-09-15T03:39:34.052Z,99.99
2022-09-15T03:40:34.085Z,99.99
2022-09-15T03:41:34.024Z,99.99
2022-09-15T03:42:34.003Z,99.99
2022-09-15T03:43:34.092Z,99.99
2022-09-15T03:44:33.985Z,99.99
2022-09-15T03:45:33.991Z,99.99
2022-09-15T03:46:33.967Z,99.99
2022-09-15T03:47:33.943Z,99.99
2022-09-15T03:48:33.912Z,99.99
2022-09-15T03:49:33.918Z,99.99
2022-09-15T03:50:33.893Z,99.99
2022-09-15T03:51:33.864Z,99.99
2022-09-15T03:52:33.877Z,99.99
2022-09-15T03:55:03.511Z,99.99
2022-09-15T03:55:45.763Z,99.99
2022-09-15T03:56:44.854Z,99.99
2022-09-15T03:57:44.851Z,99.99
2022-09-15T03:58:45.083Z,99.99
2022-09-15T03:59:44.954Z,99.99
2022-09-15T04:00:44.926Z,99.99
2022-09-15T04:01:44.767Z,99.99
2022-09-15T04:02:45.693Z,99.99
2022-09-15T04:03:50.142Z,99.99
2022-09-15T04:04:45.709Z,99.99
2022-09-15T04:05:44.726Z,99.99
2022-09-15T04:06:44.726Z,99.99
2022-09-15T04:07:44.715Z,99.99
2022-09-15T04:08:44.730Z,99.99
2022-09-15T04:09:44.692Z,99.99
2022-09-15T04:10:44.642Z,99.99
2022-09-15T04:11:44.653Z,99.99
2022-09-15T04:12:44.642Z,99.99
2022-09-15T04:13:44.635Z,99.99
2022-09-15T04:14:44.621Z,99.99
2022-09-15T04:15:44.574Z,99.99
2022-09-15T04:16:44.647Z,99.99
2022-09-15T04:17:44.592Z,99.99
2022-09-15T04:18:44.568Z,99.99
2022-09-15T04:19:44.528Z,99.99
2022-09-15T04:20:44.512Z,99.99
2022-09-15T04:21:44.496Z,99.99
2022-09-15T04:22:44.488Z,99.99
2022-09-15T04:23:44.568Z,99.99
2022-09-15T04:24:44.443Z,99.99
2022-09-15T04:25:44.453Z,99.99
2022-09-15T04:26:44.433Z,99.99
2022-09-15T04:27:44.409Z,99.99
2022-09-15T04:28:44.404Z,99.99
2022-09-15T04:29:44.403Z,99.99
2022-09-15T04:30:44.371Z,99.99
2022-09-15T04:31:45.341Z,99.99
2022-09-15T04:32:44.352Z,99.99
2022-09-15T04:33:44.331Z,99.99
2022-09-15T04:34:44.342Z,99.99
2022-09-15T04:35:44.336Z,99.99
2022-09-15T04:36:44.303Z,99.99
2022-09-15T04:37:44.297Z,99.99
2022-09-15T04:38:44.279Z,99.99
2022-09-15T04:39:44.337Z,99.99
2022-09-15T04:40:44.296Z,99.99
2022-09-15T04:41:44.235Z,99.99
2022-09-15T04:42:44.235Z,99.99
2022-09-15T04:43:44.236Z,99.99
2022-09-15T04:44:44.202Z,99.99
2022-09-15T04:45:44.200Z,99.99
2022-09-15T04:46:44.224Z,99.99
2022-09-15T04:47:44.159Z,99.99
2022-09-15T04:48:44.149Z,99.99
2022-09-15T04:49:44.114Z,99.99
2022-09-15T04:50:44.097Z,99.99
2022-09-15T04:51:44.238Z,99.99
2022-09-15T04:52:44.067Z,99.99
2022-09-15T04:53:44.099Z,99.99
2022-09-15T04:54:44.060Z,99.99
2022-09-15T04:55:44.049Z,99.99
2022-09-15T04:56:44.044Z,99.99
2022-09-15T04:57:44.028Z,99.99
2022-09-15T04:58:44.000Z,99.99
2022-09-15T04:59:43.997Z,99.99
2022-09-15T05:00:44.047Z,99.99
2022-09-15T05:01:44.024Z,99.99
2022-09-15T05:02:43.955Z,99.99
2022-09-15T05:03:43.966Z,99.99
2022-09-15T05:04:43.913Z,99.99
2022-09-15T05:05:43.923Z,99.99
2022-09-15T05:06:43.914Z,99.99
2022-09-15T05:07:43.890Z,99.99
2022-09-15T05:08:43.867Z,99.99
2022-09-15T05:09:43.862Z,99.99
2022-09-15T05:10:43.834Z,99.99
2022-09-15T05:11:43.830Z,99.99
2022-09-15T05:12:43.803Z,99.99
2022-09-15T05:13:43.808Z,99.99
2022-09-15T05:14:43.808Z,99.99
2022-09-15T05:15:43.922Z,99.99
2022-09-15T05:16:43.863Z,99.99
2022-09-15T05:17:44.705Z,99.99
2022-09-15T05:18:43.723Z,99.99
2022-09-15T05:19:43.830Z,99.99
2022-09-15T05:20:43.709Z,99.99
2022-09-15T05:21:43.695Z,99.99
2022-09-15T05:22:43.677Z,99.99
2022-09-15T05:23:43.690Z,99.99
2022-09-15T05:24:43.638Z,99.99
2022-09-15T05:25:43.681Z,99.99
2022-09-15T05:26:43.644Z,99.99
2022-09-15T05:27:43.609Z,99.99
2022-09-15T05:28:43.614Z,99.99
2022-09-15T05:29:43.588Z,99.99
2022-09-15T05:30:44.525Z,99.99
2022-09-15T05:31:43.663Z,99.99
2022-09-15T05:32:43.549Z,99.99
2022-09-15T05:33:43.554Z,99.99
2022-09-15T05:34:43.513Z,99.99
2022-09-15T05:35:43.491Z,99.99
2022-09-15T05:36:43.524Z,99.99
2022-09-15T05:37:43.507Z,99.99
2022-09-15T05:38:43.486Z,99.99
2022-09-15T05:39:43.452Z,99.99
2022-09-15T05:40:43.442Z,99.99
2022-09-15T05:41:43.431Z,99.99
2022-09-15T05:42:43.533Z,99.99
2022-09-15T05:43:43.397Z,99.99
2022-09-15T05:44:43.383Z,99.99
2022-09-15T05:45:43.399Z,99.99
2022-09-15T05:46:43.389Z,99.99
2022-09-15T05:47:43.344Z,99.99
2022-09-15T05:48:43.331Z,99.99
2022-09-15T05:49:43.324Z,99.99
2022-09-15T05:50:43.305Z,99.99
2022-09-15T05:51:43.310Z,99.99
2022-09-15T05:52:43.276Z,99.99
2022-09-15T05:53:43.278Z,99.99
2022-09-15T05:54:43.408Z,99.99
2022-09-15T05:55:43.234Z,99.99
2022-09-15T05:56:43.252Z,99.99
2022-09-15T05:57:43.199Z,99.99
2022-09-15T05:58:43.178Z,99.99
2022-09-15T05:59:43.185Z,99.99
2022-09-15T06:00:43.212Z,99.99
2022-09-15T06:01:43.202Z,99.99
2022-09-15T06:02:43.302Z,99.99
2022-09-15T06:03:43.120Z,99.99
2022-09-15T06:04:43.110Z,99.99
2022-09-15T06:05:43.091Z,99.99
2022-09-15T06:06:43.078Z,99.99
2022-09-15T06:07:43.073Z,99.99
2022-09-15T06:08:44.429Z,99.99
2022-09-15T06:09:43.041Z,99.99
2022-09-15T06:10:43.029Z,99.99
2022-09-15T06:11:43.042Z,99.99
2022-09-15T06:12:43.022Z,99.99
2022-09-15T06:13:43.007Z,99.99
2022-09-15T06:14:43.004Z,99.99
2022-09-15T06:15:42.999Z,99.99
2022-09-15T06:16:42.979Z,99.99
2022-09-15T06:17:42.949Z,99.99
2022-09-15T06:18:42.933Z,99.99
2022-09-15T06:19:42.918Z,99.99
2022-09-15T06:20:42.906Z,99.99
2022-09-15T06:21:42.956Z,99.99
2022-09-15T06:22:42.881Z,99.99
2022-09-15T06:23:46.045Z,99.99
2022-09-15T06:24:43.856Z,99.99
2022-09-15T06:25:42.878Z,99.99
2022-09-15T06:26:42.861Z,99.99
2022-09-15T06:27:42.804Z,99.99
2022-09-15T06:28:42.802Z,99.99
2022-09-15T06:29:42.778Z,99.99
2022-09-15T06:30:42.777Z,99.99
2022-09-15T06:31:42.934Z,99.99
2022-09-15T06:32:46.251Z,99.99
2022-09-15T06:33:43.742Z,99.99
2022-09-15T06:34:42.744Z,99.99
2022-09-15T06:35:42.694Z,99.99
2022-09-15T06:36:42.692Z,99.99
2022-09-15T06:37:42.690Z,99.99
2022-09-15T06:38:42.660Z,99.99
2022-09-15T06:39:42.672Z,99.99
2022-09-15T06:40:42.654Z,99.99
2022-09-15T06:42:01.293Z,99.99
2022-09-15T06:42:43.632Z,99.99
2022-09-15T06:43:42.688Z,99.98
2022-09-15T06:44:43.543Z,99.67
2022-09-15T06:45:42.606Z,99.63
2022-09-15T06:46:42.582Z,99.22
2022-09-15T06:47:43.261Z,99.11
2022-09-15T06:48:46.245Z,99.02
2022-09-15T06:49:43.527Z,98.81
2022-09-15T06:50:42.512Z,98.91
2022-09-15T06:51:42.495Z,98.50
2022-09-15T06:52:42.465Z,98.50
2022-09-15T06:53:42.478Z,98.50
2022-09-15T06:54:42.478Z,98.30
2022-09-15T06:55:42.436Z,98.50
2022-09-15T06:56:42.439Z,98.50
2022-09-15T06:57:42.398Z,98.10
2022-09-15T06:58:42.450Z,98.00
2022-09-15T06:59:42.401Z,98.00
2022-09-15T07:00:42.365Z,98.10
2022-09-15T07:01:42.371Z,98.41
2022-09-15T07:02:42.459Z,98.20
2022-09-15T07:03:42.407Z,98.10
2022-09-15T07:04:42.385Z,97.69
2022-09-15T07:05:42.312Z,97.69
2022-09-15T07:06:42.296Z,97.89
2022-09-15T07:07:43.243Z,97.80
2022-09-15T07:08:42.408Z,97.44
2022-09-15T07:09:46.024Z,97.55
2022-09-15T07:10:43.255Z,97.75
2022-09-15T07:11:42.231Z,97.65
2022-09-15T07:12:42.208Z,97.34
2022-09-15T07:13:42.218Z,97.40
2022-09-15T07:14:42.195Z,97.20
2022-09-15T07:15:42.209Z,96.89
2022-09-15T07:16:42.213Z,96.38
2022-09-15T07:17:43.092Z,95.87
2022-09-15T07:18:43.491Z,96.03
2022-09-15T07:19:42.127Z,95.94
2022-09-15T07:20:42.113Z,95.42
2022-09-15T07:21:42.100Z,94.71
2022-09-15T07:22:42.098Z,94.71
2022-09-15T07:23:42.148Z,94.82
2022-09-15T07:24:42.076Z,94.67
2022-09-15T07:25:42.022Z,94.57
2022-09-15T07:26:42.055Z,94.57
2022-09-15T07:27:42.020Z,94.06
2022-09-15T07:28:42.021Z,94.37
2022-09-15T07:29:41.974Z,93.91
2022-09-15T07:30:41.965Z,93.30
2022-09-15T07:31:42.043Z,92.90
2022-09-15T07:32:41.947Z,92.90
2022-09-15T07:33:41.984Z,92.90
2022-09-15T07:34:41.941Z,92.64
2022-09-15T07:35:41.889Z,92.74
2022-09-15T07:36:41.892Z,92.94
2022-09-15T07:37:41.981Z,92.54
2022-09-15T07:38:41.860Z,92.74
2022-09-15T07:39:41.852Z,93.05
2022-09-15T07:40:41.822Z,93.21
2022-09-15T07:41:41.823Z,92.49
2022-09-15T07:42:41.816Z,91.78
2022-09-15T07:43:41.784Z,91.58
2022-09-15T07:44:41.774Z,91.78
2022-09-15T07:45:41.784Z,91.48
2022-09-15T07:46:41.756Z,92.09
2022-09-15T07:47:41.737Z,92.29
2022-09-15T07:48:41.894Z,92.29
2022-09-15T07:49:41.697Z,92.35
2022-09-15T07:50:41.691Z,91.74
2022-09-15T07:51:41.696Z,90.73
2022-09-15T07:52:41.663Z,90.93
2022-09-15T07:53:41.667Z,90.88
2022-09-15T07:54:41.779Z,90.97
2022-09-15T07:55:41.645Z,91.13
2022-09-15T07:56:41.636Z,90.83
2022-09-15T07:57:41.589Z,90.93
2022-09-15T07:58:41.586Z,90.89
2022-09-15T07:59:41.594Z,89.77
2022-09-15T08:00:41.767Z,89.94
2022-09-15T08:01:41.593Z,88.98
2022-09-15T08:02:41.545Z,88.37
2022-09-15T08:03:41.557Z,88.07
2022-09-15T08:04:41.567Z,87.87
2022-09-15T08:05:45.427Z,87.93
2022-09-15T08:06:41.478Z,87.73
2022-09-15T08:07:41.475Z,86.41
2022-09-15T08:08:41.455Z,87.22
2022-09-15T08:09:41.453Z,87.22
2022-09-15T08:10:41.577Z,86.45
2022-09-15T08:11:41.446Z,86.76
2022-09-15T08:12:41.404Z,87.51
2022-09-15T08:13:41.370Z,87.91
2022-09-15T08:14:41.362Z,87.71
2022-09-15T08:15:41.564Z,87.97
2022-09-15T08:16:41.514Z,87.77
2022-09-15T08:17:41.592Z,87.97
2022-09-15T08:18:41.486Z,86.91
2022-09-15T08:19:41.497Z,86.31
2022-09-15T08:20:41.454Z,86.16
2022-09-15T08:21:41.405Z,86.53
2022-09-15T08:22:41.289Z,84.31
2022-09-15T08:23:41.285Z,83.70
2022-09-15T08:24:41.251Z,84.04
2022-09-15T08:25:41.246Z,84.45
2022-09-15T08:26:41.236Z,83.94
2022-09-15T08:27:41.253Z,82.42
2022-09-15T08:28:41.351Z,82.62
2022-09-15T08:29:41.191Z,83.09
2022-09-15T08:30:41.191Z,82.85
2022-09-15T08:31:41.209Z,82.55
2022-09-15T08:32:41.140Z,81.44
2022-09-15T08:33:45.545Z,80.93
2022-09-15T08:34:41.143Z,80.66
2022-09-15T08:35:41.102Z,80.66
2022-09-15T08:36:41.105Z,80.43
2022-09-15T08:37:41.060Z,80.19
2022-09-15T08:38:41.049Z,79.24
2022-09-15T08:39:41.047Z,77.66
2022-09-15T08:40:41.021Z,75.40
2022-09-15T08:41:41.024Z,75.43
2022-09-15T08:42:44.848Z,74.49
2022-09-15T08:43:41.060Z,72.20
2022-09-15T08:44:40.988Z,73.11
2022-09-15T08:58:16.481Z,71.26
2022-09-15T08:59:20.633Z,70.53
2022-09-15T09:01:29.720Z,70.93
2022-09-15T09:02:37.288Z,72.24
2022-09-15T09:03:53.527Z,73.22
2022-09-15T09:06:04.895Z,69.72
2022-09-15T09:06:41.966Z,70.12
2022-09-15T09:07:39.743Z,70.32
2022-09-15T09:08:41.690Z,69.82
2022-09-15T09:09:42.584Z,69.48
2022-09-15T09:11:04.723Z,69.12
2022-09-15T09:14:18.681Z,67.27
2022-09-15T09:15:06.974Z,65.97
2022-09-15T09:17:21.297Z,65.80
2022-09-15T09:18:18.696Z,65.70
2022-09-15T09:19:22.753Z,65.97
2022-09-15T09:20:39.293Z,64.40
2022-09-15T09:21:25.583Z,63.59
2022-09-15T09:22:26.818Z,62.45
2022-09-15T09:23:19.037Z,64.02
2022-09-15T09:24:43.628Z,65.06
2022-09-15T09:25:27.534Z,65.90
2022-09-15T09:26:23.284Z,64.06
2022-09-15T09:27:46.490Z,64.19
2022-09-15T09:28:20.350Z,65.73
2022-09-15T09:29:32.488Z,66.74
2022-09-15T09:30:20.035Z,65.39
2022-09-15T09:31:29.850Z,65.23
2022-09-15T09:32:21.692Z,64.03
2022-09-15T09:33:25.434Z,62.29
2022-09-15T09:34:23.799Z,62.29
2022-09-15T09:36:31.632Z,62.75
2022-09-15T09:37:34.012Z,63.73
2022-09-15T09:38:55.925Z,63.22
2022-09-15T09:39:34.716Z,64.00
2022-09-15T09:40:31.755Z,63.29
2022-09-15T09:41:31.348Z,62.76
2022-09-15T09:42:34.298Z,62.16
2022-09-15T09:43:34.194Z,61.76
2022-09-15T09:44:34.366Z,61.72
2022-09-15T09:45:53.644Z,60.89
2022-09-15T09:46:31.902Z,60.72
2022-09-15T09:47:31.190Z,59.77
2022-09-15T09:48:34.747Z,59.59
2022-09-15T09:49:31.807Z,59.69
2022-09-15T09:50:35.580Z,59.42
2022-09-15T09:51:32.952Z,60.49
2022-09-15T09:52:31.020Z,59.66
2022-09-15T09:53:31.143Z,58.20
2022-09-15T09:54:32.158Z,59.13
2022-09-15T09:55:37.658Z,58.48
2022-09-15T09:56:30.118Z,57.72
2022-09-15T09:57:29.570Z,56.22
2022-09-15T09:58:34.044Z,54.64
2022-09-15T09:59:34.714Z,56.15
2022-09-15T10:00:34.105Z,57.11
2022-09-15T10:01:35.861Z,60.42
2022-09-15T10:02:33.153Z,57.03
2022-09-15T10:03:32.960Z,55.80
2022-09-15T10:04:29.241Z,57.21
2022-09-15T10:05:29.186Z,56.76
2022-09-15T10:06:29.153Z,56.00
2022-09-15T10:07:29.155Z,55.57
2022-09-15T10:08:29.124Z,55.00
2022-09-15T10:09:33.218Z,56.45
2022-09-15T10:10:29.118Z,57.11
2022-09-15T10:11:29.176Z,59.50
2022-09-15T10:12:29.129Z,60.47
2022-09-15T10:13:29.303Z,61.67
2022-09-15T10:14:29.084Z,61.40
2022-09-15T10:15:29.071Z,61.43
2022-09-15T10:16:29.052Z,62.46
2022-09-15T10:17:29.025Z,63.27
2022-09-15T10:18:29.056Z,64.11
2022-09-15T10:19:28.999Z,65.19
2022-09-15T10:20:29.001Z,63.85
2022-09-15T10:21:28.961Z,63.45
2022-09-15T10:22:29.655Z,63.85
2022-09-15T10:23:28.934Z,64.35
2022-09-15T10:24:28.945Z,64.55
2022-09-15T10:25:44.280Z,63.54
2022-09-15T10:26:29.902Z,64.55
2022-09-15T10:27:28.905Z,64.58
2022-09-15T10:28:28.866Z,64.89
2022-09-15T10:29:28.850Z,64.48
2022-09-15T10:30:28.867Z,64.75
2022-09-15T10:31:28.909Z,64.31
2022-09-15T10:32:28.828Z,64.72
2022-09-15T10:33:28.810Z,63.90
2022-09-15T10:34:28.794Z,64.81
2022-09-15T10:35:28.795Z,64.31
2022-09-15T10:36:28.779Z,64.61
2022-09-15T10:37:28.746Z,64.81
2022-09-15T10:38:28.761Z,64.38
2022-09-15T10:39:28.718Z,64.07
2022-09-15T10:40:28.756Z,64.89
2022-09-15T10:41:28.814Z,63.75
2022-09-15T10:42:28.925Z,63.45
2022-09-15T10:43:28.683Z,63.27
2022-09-15T10:44:28.658Z,63.27
2022-09-15T10:45:28.655Z,62.66
2022-09-15T10:46:28.686Z,63.04
2022-09-15T10:47:29.565Z,62.97
2022-09-15T10:48:28.626Z,63.17
2022-09-15T10:49:28.612Z,63.37
2022-09-15T10:50:28.586Z,63.57
2022-09-15T10:51:28.561Z,64.69
2022-09-15T10:52:28.688Z,65.82
2022-09-15T10:53:28.547Z,67.97
2022-09-15T10:54:28.524Z,68.98
2022-09-15T10:55:48.947Z,69.21
2022-09-15T10:56:29.503Z,70.06
2022-09-15T10:57:28.480Z,70.56
2022-09-15T10:58:28.478Z,70.76
2022-09-15T10:59:28.452Z,70.66
2022-09-15T11:00:28.457Z,70.15
2022-09-15T11:01:28.438Z,71.97
2022-09-15T11:02:28.487Z,71.26
2022-09-15T11:03:28.431Z,71.44
2022-09-15T11:04:28.395Z,69.89
2022-09-15T11:05:28.375Z,69.05
2022-09-15T11:06:28.382Z,68.51
2022-09-15T11:07:28.350Z,68.21
2022-09-15T11:08:28.370Z,67.64
2022-09-15T11:09:28.319Z,64.54
2022-09-15T11:10:28.313Z,60.98
2022-09-15T11:11:28.280Z,58.35
2022-09-15T11:12:29.451Z,56.12
2022-09-15T11:13:28.287Z,56.74
2022-09-15T11:14:28.260Z,57.17
2022-09-15T11:15:28.255Z,54.34
2022-09-15T11:16:28.290Z,54.41
2022-09-15T11:17:28.204Z,55.42
2022-09-15T11:18:28.206Z,58.46
2022-09-15T11:19:28.293Z,59.95
2022-09-15T11:20:28.177Z,61.08
2022-09-15T11:21:28.167Z,60.81
2022-09-15T11:22:28.152Z,61.82
2022-09-15T11:23:28.134Z,61.94
2022-09-15T11:24:28.144Z,61.14
2022-09-15T11:25:28.120Z,61.65
2022-09-15T11:26:28.076Z,62.38
2022-09-15T11:27:28.079Z,63.31
2022-09-15T11:28:28.057Z,64.55
2022-09-15T11:29:28.041Z,65.46
2022-09-15T11:30:28.071Z,66.50
2022-09-15T11:31:28.083Z,65.09
2022-09-15T11:32:28.020Z,65.92
2022-09-15T11:33:28.011Z,68.04
2022-09-15T11:34:27.985Z,68.98
2022-09-15T11:35:28.013Z,70.73
2022-09-15T11:36:27.971Z,72.68
2022-09-15T11:37:27.937Z,73.08
2022-09-15T11:38:27.979Z,74.60
2022-09-15T11:39:27.919Z,73.32
2022-09-15T11:40:27.970Z,73.93
2022-09-15T11:41:27.905Z,74.37
2022-09-15T11:42:27.880Z,75.27
2022-09-15T11:43:27.876Z,75.57
2022-09-15T11:44:27.856Z,75.68
2022-09-15T11:45:27.852Z,74.57
2022-09-15T11:46:27.886Z,74.37
2022-09-15T11:47:27.803Z,75.31
2022-09-15T11:48:27.797Z,76.02
2022-09-15T11:49:27.786Z,78.28
2022-09-15T11:50:27.755Z,81.65
2022-09-15T11:51:27.891Z,84.63
2022-09-15T11:52:27.745Z,83.96
2022-09-15T11:53:27.729Z,87.24
2022-09-15T11:54:31.073Z,89.11
2022-09-15T11:55:27.737Z,89.72
2022-09-15T11:56:27.681Z,88.09
2022-09-15T11:57:27.900Z,89.11
2022-09-15T11:58:27.680Z,88.15
2022-09-15T11:59:27.644Z,89.37
2022-09-15T12:00:27.651Z,86.33
2022-09-15T12:01:27.762Z,87.10
2022-09-15T12:02:27.678Z,86.15
2022-09-15T12:03:27.618Z,84.19
2022-09-15T12:04:27.569Z,83.84
2022-09-15T12:05:27.560Z,84.00
2022-09-15T12:06:27.554Z,80.77
2022-09-15T12:07:27.532Z,83.15
2022-09-15T12:08:27.654Z,78.24
2022-09-15T12:09:27.506Z,78.55
2022-09-15T12:10:27.491Z,77.64
2022-09-15T12:11:27.485Z,78.34
2022-09-15T12:12:30.698Z,78.55
2022-09-15T12:13:27.477Z,79.75
2022-09-15T12:14:27.443Z,79.96
2022-09-15T12:15:27.632Z,80.26
2022-09-15T12:16:27.416Z,78.81
2022-09-15T12:17:27.394Z,79.66
2022-09-15T12:18:38.557Z,78.55
2022-09-15T12:19:28.367Z,77.84
2022-09-15T12:20:27.378Z,76.42
2022-09-15T12:21:27.350Z,75.57
2022-09-15T12:22:27.334Z,76.59
2022-09-15T12:23:27.321Z,74.37
2022-09-15T12:24:27.337Z,73.59
2022-09-15T12:25:27.285Z,73.79
2022-09-15T12:26:27.290Z,73.28
2022-09-15T12:27:27.284Z,75.21
2022-09-15T12:28:28.261Z,72.78
2022-09-15T12:29:27.239Z,73.79
2022-09-15T12:30:27.243Z,72.99
2022-09-15T12:31:27.227Z,74.97
2022-09-15T12:32:27.213Z,74.06
2022-09-15T12:33:27.193Z,73.75
2022-09-15T12:34:27.161Z,72.91
2022-09-15T12:35:27.203Z,72.61
2022-09-15T12:36:27.132Z,73.02
2022-09-15T12:37:27.169Z,72.11
2022-09-15T12:38:27.142Z,71.70
2022-09-15T12:39:27.093Z,72.51
2022-09-15T12:40:27.326Z,70.59
2022-09-15T12:41:27.106Z,70.79
2022-09-15T12:42:27.083Z,71.60
2022-09-15T12:43:27.076Z,70.19
2022-09-15T12:44:27.054Z,70.73
2022-09-15T12:45:27.063Z,71.70
2022-09-15T12:46:27.131Z,71.60
2022-09-15T12:47:27.009Z,70.39
2022-09-15T12:48:27.017Z,69.85
2022-09-15T12:49:26.983Z,70.26
2022-09-15T12:50:26.966Z,70.93
2022-09-15T12:51:27.072Z,71.30
2022-09-15T12:52:26.981Z,70.56
2022-09-15T12:53:27.705Z,68.95
2022-09-15T12:54:26.933Z,68.34
2022-09-15T12:55:26.886Z,67.91
2022-09-15T12:56:26.893Z,67.97
2022-09-15T12:57:26.913Z,66.83
2022-09-15T12:58:26.859Z,65.53
2022-09-15T12:59:26.853Z,65.73
2022-09-15T13:00:26.882Z,64.32
2022-09-15T13:01:26.946Z,65.93
2022-09-15T13:02:27.033Z,64.42
2022-09-15T13:03:26.849Z,63.92
2022-09-15T13:04:26.812Z,62.04
2022-09-15T13:05:26.772Z,64.05
2022-09-15T13:06:26.768Z,63.71
2022-09-15T13:07:26.714Z,61.98
2022-09-15T13:08:26.737Z,61.67
2022-09-15T13:09:26.699Z,60.67
2022-09-15T13:10:26.685Z,61.44
2022-09-15T13:11:26.668Z,61.57
2022-09-15T13:12:26.673Z,60.97
2022-09-15T13:13:28.812Z,61.04
2022-09-15T13:14:26.630Z,60.61